Time;durP1;ratioP1;P1;durP2;ratioP2;P2;SDS_P1;SDS_P2;PMS_P1;PMS_P2;Temp;Humidity;BMP_temperature;BMP_pressure;BME280_temperature;BME280_humidity;BME280_pressure;Samples;Min_cycle;Max_cycle;Signal;HPM_P1;HPM_P2
2022/08/02 00:01:15;;;;;;;5.28;2.70;;;;;;;18.09;56.48;101794.44;4976212;28;20031;-87
2022/08/02 00:03:40;;;;;;;7.03;2.60;;;;;;;17.86;57.60;101789.19;4959014;28;20109;-87
2022/08/02 00:06:06;;;;;;;7.30;2.67;;;;;;;17.80;57.07;101781.19;4976447;28;20034;-87
2022/08/02 00:08:32;;;;;;;5.50;2.70;;;;;;;17.83;56.48;101771.38;4974936;28;20031;-87
2022/08/02 00:10:57;;;;;;;5.45;3.10;;;;;;;17.93;55.20;101758.84;4975759;28;20023;-86
2022/08/02 00:13:22;;;;;;;5.93;2.70;;;;;;;17.89;56.02;101775.81;4974645;28;20035;-86
2022/08/02 00:15:48;;;;;;;5.28;3.00;;;;;;;17.93;54.29;101765.09;4975772;28;20067;-87
2022/08/02 00:18:13;;;;;;;5.93;2.90;;;;;;;18.10;53.40;101775.69;4975977;28;20034;-86
2022/08/02 00:20:39;;;;;;;7.95;3.25;;;;;;;18.04;53.54;101773.06;4943085;28;20129;-87
2022/08/02 00:23:04;;;;;;;5.85;2.95;;;;;;;18.05;53.21;101763.25;4976456;28;20031;-87
2022/08/02 00:25:29;;;;;;;8.57;3.17;;;;;;;18.04;52.73;101777.53;4974880;28;20474;-86
2022/08/02 00:27:55;;;;;;;5.35;2.97;;;;;;;18.03;52.93;101790.03;4975898;28;20034;-87
2022/08/02 00:30:20;;;;;;;8.00;2.97;;;;;;;17.94;53.87;101774.91;4976106;28;20108;-87
2022/08/02 00:32:46;;;;;;;4.63;2.60;;;;;;;17.86;55.93;101792.78;4975698;28;20030;-86
2022/08/02 00:35:11;;;;;;;9.48;3.10;;;;;;;17.77;55.70;101791.03;4974529;28;20408;-86
2022/08/02 00:37:38;;;;;;;7.05;2.90;;;;;;;17.73;55.55;101762.50;4958310;28;20026;-86
2022/08/02 00:40:04;;;;;;;8.77;3.08;;;;;;;17.71;55.54;101782.97;4976215;28;20146;-86
2022/08/02 00:42:30;;;;;;;5.65;2.95;;;;;;;17.62;56.54;101785.69;4975634;28;20050;-86
2022/08/02 00:44:55;;;;;;;4.88;3.10;;;;;;;17.58;56.89;101781.25;4975942;28;20031;-86
2022/08/02 00:47:21;;;;;;;4.82;3.10;;;;;;;17.59;57.25;101779.47;4975522;28;20455;-86
2022/08/02 00:49:46;;;;;;;6.25;3.30;;;;;;;17.67;54.85;101772.31;4975497;28;20026;-86
2022/08/02 00:52:11;;;;;;;7.45;3.40;;;;;;;17.62;55.19;101766.97;4975946;28;20039;-86
2022/08/02 00:54:37;;;;;;;6.55;3.30;;;;;;;17.63;55.71;101771.41;4975586;28;20058;-86
2022/08/02 00:57:02;;;;;;;5.72;3.45;;;;;;;17.55;55.78;101759.88;4975745;28;20031;-86
2022/08/02 00:59:27;;;;;;;8.00;3.47;;;;;;;17.53;55.46;101757.22;4974644;28;20105;-86
2022/08/02 01:01:54;;;;;;;9.05;3.40;;;;;;;17.70;55.19;101750.91;4974171;28;20031;-86
2022/08/02 01:04:19;;;;;;;7.15;3.53;;;;;;;17.81;54.27;101756.25;4975197;28;20019;-86
2022/08/02 01:06:45;;;;;;;5.68;3.20;;;;;;;17.86;54.13;101754.44;4974990;28;20411;-86
2022/08/02 01:09:10;;;;;;;8.20;3.30;;;;;;;17.95;54.55;101752.63;4974002;28;20084;-88
2022/08/02 01:11:36;;;;;;;8.55;3.10;;;;;;;18.06;53.59;101759.69;4973689;28;20468;-88
2022/08/02 01:14:05;;;;;;;6.13;3.10;;;;;;;18.07;53.48;101750.75;4975119;28;20038;-87
2022/08/02 01:16:36;;;;;;;8.85;3.30;;;;;;;18.11;53.66;101758.75;4975127;28;20031;-87
2022/08/02 01:19:21;;;;;;;11.38;3.30;;;;;;;18.11;53.91;101756.06;4975241;28;20033;-87
2022/08/02 01:22:04;;;;;;;6.00;3.17;;;;;;;18.12;53.77;101757.00;4975617;28;20019;-87
2022/08/02 01:24:35;;;;;;;7.60;3.20;;;;;;;18.05;53.78;101749.88;4974034;28;20037;-88
2022/08/02 01:27:20;;;;;;;8.63;3.23;;;;;;;18.10;53.34;101756.09;4974384;28;20066;-88
2022/08/02 01:29:52;;;;;;;7.63;3.10;;;;;;;18.00;53.49;101760.63;4975039;28;20027;-88
2022/08/02 01:32:24;;;;;;;9.27;2.78;;;;;;;17.94;53.07;101739.22;4973972;28;20026;-87
2022/08/02 01:34:53;;;;;;;4.70;2.72;;;;;;;18.04;53.01;101751.69;4974710;28;20034;-88
2022/08/02 01:37:28;;;;;;;5.13;2.90;;;;;;;18.01;52.96;101749.91;4973908;28;20022;-88
2022/08/02 01:39:59;;;;;;;7.13;2.90;;;;;;;17.82;54.12;101747.34;4974028;28;20027;-87
2022/08/02 01:42:28;;;;;;;7.13;3.15;;;;;;;17.66;55.27;101749.16;4974952;28;20031;-88
2022/08/02 01:44:55;;;;;;;7.13;2.85;;;;;;;17.58;56.21;101753.63;4974790;28;20089;-88
2022/08/02 01:47:29;;;;;;;5.88;3.22;;;;;;;17.46;56.31;101744.75;4957493;28;20062;-88
2022/08/02 01:49:57;;;;;;;6.93;2.90;;;;;;;17.54;55.57;101742.06;4975159;28;20065;-88
2022/08/02 01:52:28;;;;;;;6.22;2.80;;;;;;;17.52;55.40;101722.50;4975090;28;20043;-88
2022/08/02 01:55:04;;;;;;;9.73;3.00;;;;;;;17.65;55.36;101734.91;4973380;28;20430;-88
2022/08/02 01:57:38;;;;;;;4.78;2.78;;;;;;;17.74;55.08;101736.69;4975532;28;20031;-88
2022/08/02 02:00:06;;;;;;;8.93;2.90;;;;;;;17.72;55.46;101730.41;4975053;28;20023;-88
2022/08/02 02:02:36;;;;;;;6.13;2.55;;;;;;;17.69;55.14;101727.75;4958366;28;20430;-88
2022/08/02 02:05:03;;;;;;;5.38;2.83;;;;;;;17.54;55.12;101712.66;4974597;28;20027;-88
2022/08/02 02:07:32;;;;;;;6.95;3.10;;;;;;;17.54;55.13;101726.03;4974397;28;20027;-88
2022/08/02 02:09:59;;;;;;;6.78;3.20;;;;;;;17.48;55.28;101726.94;4974918;28;20058;-88
2022/08/02 02:12:36;;;;;;;7.72;3.08;;;;;;;17.56;55.56;101721.59;4974443;28;20125;-88
2022/08/02 02:15:02;;;;;;;7.38;3.17;;;;;;;17.63;55.15;101711.75;4975261;28;20037;-88
2022/08/02 02:17:30;;;;;;;8.23;3.00;;;;;;;17.56;55.43;101716.25;4974242;28;20038;-88
2022/08/02 02:19:58;;;;;;;6.45;3.03;;;;;;;17.59;55.58;101718.88;4975051;28;20038;-88
2022/08/02 02:22:24;;;;;;;6.50;3.00;;;;;;;17.41;55.83;101711.81;4974252;28;20448;-88
2022/08/02 02:24:50;;;;;;;5.53;3.00;;;;;;;17.44;55.87;101711.81;4973667;28;20034;-88
2022/08/02 02:27:16;;;;;;;10.02;2.90;;;;;;;17.26;56.34;101702.09;4975999;28;20026;-88
2022/08/02 02:29:45;;;;;;;5.65;2.80;;;;;;;17.24;56.50;101700.31;4974575;28;20054;-89
2022/08/02 02:32:13;;;;;;;5.63;2.72;;;;;;;17.26;57.07;101693.19;4974477;28;20029;-88
2022/08/02 02:34:43;;;;;;;9.65;3.05;;;;;;;17.20;56.36;101685.19;4976484;28;20034;-88
2022/08/02 02:37:15;;;;;;;6.53;2.97;;;;;;;17.31;56.56;101694.06;4977573;28;20085;-88
2022/08/02 02:39:44;;;;;;;6.25;2.97;;;;;;;17.31;56.12;101691.38;4977651;28;20054;-88
2022/08/02 02:42:14;;;;;;;7.07;2.90;;;;;;;17.33;56.18;101692.25;4976784;28;20034;-88
2022/08/02 02:44:40;;;;;;;6.32;2.90;;;;;;;17.28;56.44;101689.59;4978002;28;20037;-88
2022/08/02 02:47:08;;;;;;;4.72;2.70;;;;;;;17.22;56.60;101699.44;4960320;28;20048;-88
2022/08/02 02:49:35;;;;;;;6.50;2.72;;;;;;;17.21;56.55;101702.97;4977719;28;20139;-88
2022/08/02 02:52:03;;;;;;;5.93;2.92;;;;;;;17.02;57.08;101691.47;4976940;28;20078;-87
2022/08/02 02:54:30;;;;;;;5.60;2.95;;;;;;;17.04;57.34;101692.34;4976218;28;20066;-88
2022/08/02 02:56:57;;;;;;;9.68;3.03;;;;;;;17.13;57.28;101702.09;4977278;28;20491;-88
2022/08/02 02:59:23;;;;;;;6.47;3.10;;;;;;;16.96;57.36;101689.72;4977470;28;20037;-88
2022/08/02 03:01:50;;;;;;;6.50;3.00;;;;;;;16.94;57.53;101694.16;4977954;28;20367;-88
2022/08/02 03:04:16;;;;;;;5.65;2.90;;;;;;;16.93;57.22;101691.50;4960286;28;20030;-88
2022/08/02 03:06:42;;;;;;;7.60;3.10;;;;;;;16.87;57.54;101678.13;4960097;28;20034;-88
2022/08/02 03:09:09;;;;;;;8.32;3.20;;;;;;;16.91;57.96;101693.25;4976046;28;20514;-87
2022/08/02 03:11:40;;;;;;;7.35;2.88;;;;;;;16.87;58.82;101678.13;4977621;28;20101;-87
2022/08/02 03:14:09;;;;;;;6.88;3.00;;;;;;;16.87;58.65;101684.34;4976222;28;20046;-87
2022/08/02 03:16:45;;;;;;;9.38;3.28;;;;;;;16.84;58.33;101686.16;4977204;28;20031;-87
2022/08/02 03:19:10;;;;;;;11.27;3.08;;;;;;;16.85;58.49;101690.63;4977184;28;20081;-87
2022/08/02 03:21:35;;;;;;;9.65;3.10;;;;;;;16.85;59.33;101678.16;4977118;28;20030;-87
2022/08/02 03:24:01;;;;;;;7.80;3.20;;;;;;;16.89;58.34;101687.94;4976393;28;20035;-87
2022/08/02 03:26:26;;;;;;;4.75;2.95;;;;;;;16.97;58.13;101682.59;4976980;28;20398;-87
2022/08/02 03:28:52;;;;;;;10.63;3.20;;;;;;;17.06;57.81;101687.91;4975826;28;20364;-88
2022/08/02 03:31:17;;;;;;;6.68;2.95;;;;;;;17.06;58.10;101695.91;4975396;28;20109;-87
2022/08/02 03:33:43;;;;;;;10.25;3.28;;;;;;;17.05;57.81;101688.81;4976865;28;20034;-88
2022/08/02 03:36:15;;;;;;;13.70;3.53;;;;;;;17.17;57.51;101703.88;4976825;28;20038;-87
2022/08/02 03:38:42;;;;;;;6.13;3.17;;;;;;;17.17;57.33;101679.84;4975510;28;20031;-88
2022/08/02 03:41:10;;;;;;;5.85;3.00;;;;;;;17.14;57.76;101666.53;4976236;28;20415;-88
2022/08/02 03:43:37;;;;;;;8.43;3.17;;;;;;;17.20;57.75;101674.50;4959451;28;20026;-88
2022/08/02 03:46:04;;;;;;;5.95;3.22;;;;;;;17.11;57.99;101672.75;4974156;28;20031;-88
2022/08/02 03:48:30;;;;;;;7.85;3.33;;;;;;;17.01;58.93;101677.22;4976554;28;20034;-88
2022/08/02 03:50:56;;;;;;;6.15;2.97;;;;;;;16.92;59.00;101671.91;4975301;28;20105;-88
2022/08/02 03:53:22;;;;;;;7.75;3.47;;;;;;;16.84;59.46;101665.69;4976258;28;20467;-87
2022/08/02 03:55:48;;;;;;;8.48;3.28;;;;;;;16.76;58.99;101648.81;4975063;28;20054;-88
2022/08/02 03:58:17;;;;;;;8.15;3.15;;;;;;;16.85;59.34;101658.59;4976411;28;20027;-87
2022/08/02 04:00:43;;;;;;;8.68;3.28;;;;;;;16.89;58.95;101658.56;4959131;28;20038;-88
2022/08/02 04:03:08;;;;;;;5.50;3.45;;;;;;;16.94;59.08;101662.09;4974875;28;20090;-87
2022/08/02 04:05:34;;;;;;;7.38;3.33;;;;;;;16.80;59.13;101649.69;4958655;28;20037;-87
2022/08/02 04:07:59;;;;;;;8.45;3.30;;;;;;;16.84;59.16;101654.13;4958882;28;20065;-88
2022/08/02 04:10:25;;;;;;;7.25;3.70;;;;;;;16.80;59.42;101660.38;4974904;28;20073;-87
2022/08/02 04:12:51;;;;;;;6.45;3.45;;;;;;;16.75;59.68;101652.38;4976930;28;20042;-87
2022/08/02 04:15:16;;;;;;;9.00;3.60;;;;;;;16.78;59.61;101661.25;4958788;28;20042;-88
2022/08/02 04:17:51;;;;;;;8.07;3.90;;;;;;;16.80;59.40;101653.25;4975270;28;20046;-88
2022/08/02 04:20:20;;;;;;;7.80;3.85;;;;;;;16.84;59.29;101659.47;4975767;28;20034;-87
2022/08/02 04:22:56;;;;;;;9.80;3.60;;;;;;;16.84;59.58;101655.03;4976004;28;20057;-88
2022/08/02 04:25:26;;;;;;;6.57;3.50;;;;;;;16.92;59.64;101660.34;4975437;28;20452;-88
2022/08/02 04:27:53;;;;;;;7.45;3.63;;;;;;;16.94;59.77;101664.78;4959726;28;20041;-86
2022/08/02 04:30:20;;;;;;;9.95;3.72;;;;;;;17.01;59.56;101668.34;4974734;28;20114;-87
2022/08/02 04:32:46;;;;;;;6.80;3.60;;;;;;;17.00;59.36;101661.19;4974668;28;20033;-88
2022/08/02 04:35:12;;;;;;;9.00;3.22;;;;;;;17.00;59.58;101654.09;4974464;28;20026;-88
2022/08/02 04:37:39;;;;;;;7.13;3.90;;;;;;;17.04;59.50;101662.97;4976270;28;20031;-88
2022/08/02 04:40:12;;;;;;;8.75;3.80;;;;;;;16.96;59.14;101649.66;4974502;28;20030;-88
2022/08/02 04:42:38;;;;;;;8.90;4.05;;;;;;;17.00;58.89;101658.53;4975870;28;20030;-88
2022/08/02 04:45:06;;;;;;;6.43;3.88;;;;;;;17.01;59.53;101665.66;4975510;28;20042;-87
2022/08/02 04:47:34;;;;;;;7.20;4.13;;;;;;;17.06;59.43;101668.31;4976079;28;20117;-89
2022/08/02 04:49:59;;;;;;;5.90;3.55;;;;;;;17.10;59.71;101667.41;4975437;28;20026;-87
2022/08/02 04:52:25;;;;;;;6.28;3.88;;;;;;;17.15;59.47;101665.63;4975209;28;20109;-87
2022/08/02 04:54:52;;;;;;;9.88;4.20;;;;;;;17.14;59.56;101647.81;4973926;28;20122;-86
2022/08/02 05:00:04;;;;;;;10.38;4.03;;;;;;;17.19;59.44;101670.94;4975874;28;20045;-86
2022/08/02 05:02:30;;;;;;;10.18;4.80;;;;;;;17.13;59.90;101656.72;4974458;28;20027;-86
2022/08/02 05:04:55;;;;;;;10.30;4.88;;;;;;;17.19;60.12;101662.94;4958511;28;20086;-86
2022/08/02 05:07:20;;;;;;;10.25;5.30;;;;;;;17.10;59.98;101657.63;4975798;28;20034;-86
2022/08/02 05:09:46;;;;;;;11.50;4.70;;;;;;;17.16;60.06;101662.94;4975462;28;20031;-86
2022/08/02 05:12:11;;;;;;;9.02;4.82;;;;;;;17.13;60.28;101646.94;4975176;28;20066;-86
2022/08/02 05:14:36;;;;;;;8.25;4.20;;;;;;;17.23;60.23;101653.13;4975132;28;20490;-87
2022/08/02 05:17:02;;;;;;;9.50;4.18;;;;;;;17.25;60.55;101654.88;4974019;28;20062;-87
2022/08/02 05:19:27;;;;;;;8.45;4.30;;;;;;;17.15;60.79;101645.13;4974172;28;20027;-87
2022/08/02 05:21:53;;;;;;;10.65;4.20;;;;;;;17.20;61.20;101646.00;4974203;28;20407;-87
2022/08/02 05:24:18;;;;;;;7.85;4.53;;;;;;;17.24;61.16;101639.75;4975225;28;20065;-86
2022/08/02 05:26:44;;;;;;;8.70;4.60;;;;;;;17.43;61.33;101645.00;4957732;28;20027;-86
2022/08/02 05:29:09;;;;;;;9.07;4.63;;;;;;;17.61;61.08;101647.63;4974759;28;20447;-86
2022/08/02 05:31:34;;;;;;;9.20;4.70;;;;;;;17.66;61.19;101647.59;4973812;28;20023;-86
2022/08/02 05:34:00;;;;;;;10.00;4.55;;;;;;;17.71;60.77;101630.59;4973820;28;20026;-86
2022/08/02 05:36:25;;;;;;;8.98;5.03;;;;;;;17.85;60.75;101645.72;4957635;28;20062;-87
2022/08/02 05:38:51;;;;;;;10.60;5.00;;;;;;;17.89;61.36;101636.75;4957722;28;20030;-86
2022/08/02 05:41:18;;;;;;;13.60;5.47;;;;;;;17.87;61.51;101630.56;4957426;28;20379;-86
2022/08/02 05:43:44;;;;;;;10.23;5.30;;;;;;;18.00;61.92;101641.16;4979799;28;20623;-87
2022/08/02 05:46:09;;;;;;;9.63;5.70;;;;;;;18.17;60.95;101645.50;4976065;28;20147;-87
2022/08/02 05:48:34;;;;;;;10.63;5.45;;;;;;;18.23;61.61;101632.94;4974702;28;20130;-86
2022/08/02 05:51:03;;;;;;;9.98;5.63;;;;;;;18.38;61.28;101636.41;4974846;28;20054;-87
2022/08/02 05:53:43;;;;;;;10.65;5.85;;;;;;;18.18;62.79;101637.44;4975369;28;20105;-88
2022/08/02 05:56:33;;;;;;;15.50;5.90;;;;;;;18.33;63.26;101657.84;4973293;28;20051;-88
2022/08/02 05:59:12;;;;;;;12.25;6.00;;;;;;;18.39;63.09;101652.44;4975332;28;20043;-88
2022/08/02 06:01:41;;;;;;;10.77;5.80;;;;;;;18.41;63.18;101645.25;4975022;28;20468;-88
2022/08/02 06:04:09;;;;;;;13.02;6.72;;;;;;;18.53;63.48;101649.63;4974315;28;20066;-88
2022/08/02 06:06:36;;;;;;;12.38;6.30;;;;;;;18.81;62.81;101658.31;4974479;28;20114;-87
2022/08/02 06:09:23;;;;;;;12.50;6.20;;;;;;;19.17;61.63;101674.88;4974717;28;20060;-89
2022/08/02 06:11:57;;;;;;;10.05;6.15;;;;;;;19.13;61.97;101660.63;4978372;28;20022;-91
2022/08/02 06:14:24;;;;;;;12.88;6.28;;;;;;;19.08;62.44;101642.84;4976856;28;20042;-93
2022/08/02 06:16:50;;;;;;;10.45;6.38;;;;;;;19.16;62.73;101670.44;4976767;28;20626;-90
2022/08/02 06:19:17;;;;;;;13.00;6.18;;;;;;;19.21;62.41;101656.06;4976650;28;20057;-87
2022/08/02 06:21:44;;;;;;;12.88;6.80;;;;;;;19.22;62.43;101635.53;4976932;28;20117;-90
2022/08/02 06:24:11;;;;;;;13.35;6.65;;;;;;;19.21;63.17;101633.75;4977069;28;20034;-87
2022/08/02 06:26:37;;;;;;;11.57;6.20;;;;;;;19.28;63.25;101646.19;4976837;28;20070;-89
2022/08/02 06:29:05;;;;;;;12.82;6.70;;;;;;;19.29;63.75;101642.59;4976784;28;20027;-89
2022/08/02 06:31:31;;;;;;;10.98;6.80;;;;;;;19.36;64.36;101640.75;4977018;28;20054;-89
2022/08/02 06:33:58;;;;;;;15.05;6.72;;;;;;;19.46;64.70;101640.59;4977699;28;20089;-89
2022/08/02 06:36:41;;;;;;;12.13;6.70;;;;;;;19.75;64.36;101664.34;4977106;28;20407;-84
2022/08/02 06:39:22;;;;;;;;;;;;;;;19.93;64.01;101649.78;4979260;28;20027;-89
2022/08/02 06:41:48;;;;;;;13.38;6.22;;;;;;;20.19;63.89;101651.16;4977792;28;19910;-86
2022/08/02 06:44:14;;;;;;;12.38;6.15;;;;;;;20.37;62.34;101645.50;4978077;28;20341;-90
2022/08/02 06:46:41;;;;;;;15.73;6.90;;;;;;;20.49;61.92;101639.94;4977744;28;20499;-90
2022/08/02 06:49:06;;;;;;;11.88;6.55;;;;;;;20.63;61.68;101638.81;4976489;28;20142;-91
2022/08/02 06:51:32;;;;;;;11.55;6.55;;;;;;;20.85;61.68;101644.66;4977749;28;20462;-88
2022/08/02 06:53:58;;;;;;;10.40;6.90;;;;;;;21.05;60.92;101638.91;4976482;28;20069;-90
2022/08/02 06:56:23;;;;;;;14.65;6.13;;;;;;;21.25;59.64;101631.34;4977801;28;20058;-91
2022/08/02 06:58:48;;;;;;;14.48;6.43;;;;;;;21.52;59.95;101635.25;4976218;28;20427;-86
2022/08/02 07:01:14;;;;;;;16.45;7.10;;;;;;;21.54;59.69;101644.19;4977226;28;20034;-87
2022/08/02 07:03:40;;;;;;;14.65;7.05;;;;;;;21.63;59.25;101643.09;4976180;28;20081;-89
2022/08/02 07:06:08;;;;;;;11.45;7.05;;;;;;;21.77;59.49;101624.81;4977089;28;20085;-86
2022/08/02 07:08:37;;;;;;;13.65;7.10;;;;;;;21.91;59.47;101621.81;4977406;28;20091;-88
2022/08/02 07:11:06;;;;;;;9.85;7.57;;;;;;;22.12;59.23;101633.88;4978030;28;20030;-91
2022/08/02 07:13:32;;;;;;;11.95;7.55;;;;;;;22.27;59.03;101619.16;4981941;28;20039;-89
2022/08/02 07:15:58;;;;;;;13.57;7.53;;;;;;;22.58;58.27;101639.00;4964594;28;20034;-87
2022/08/02 07:18:27;;;;;;;14.32;7.32;;;;;;;22.75;57.74;101639.44;4982484;28;20030;-91
2022/08/02 07:20:53;;;;;;;11.88;7.38;;;;;;;22.87;57.03;101635.53;4981135;28;20118;-91
2022/08/02 07:23:18;;;;;;;12.15;6.82;;;;;;;23.03;56.63;101630.59;4981678;28;20109;-89
2022/08/02 07:25:44;;;;;;;13.00;6.90;;;;;;;23.06;56.90;101629.63;4982646;28;20363;-88
2022/08/02 07:28:11;;;;;;;12.43;6.82;;;;;;;23.13;56.32;101626.72;4982968;28;20447;-88
2022/08/02 07:30:36;;;;;;;13.30;7.13;;;;;;;23.31;55.72;101624.41;4981587;28;20045;-89
2022/08/02 07:33:05;;;;;;;10.63;6.20;;;;;;;23.48;55.33;101625.66;4981591;28;20118;-92
2022/08/02 07:35:30;;;;;;;9.75;6.22;;;;;;;23.45;55.20;101620.38;4982851;28;20482;-90
2022/08/02 07:37:56;;;;;;;12.88;6.45;;;;;;;23.66;55.05;101629.66;4982814;28;20026;-89
2022/08/02 07:40:25;;;;;;;12.30;6.60;;;;;;;23.80;54.74;101634.59;4982918;28;20478;-88
2022/08/02 07:42:52;;;;;;;9.52;6.55;;;;;;;23.65;54.92;101603.59;4983084;28;20089;-89
2022/08/02 07:45:19;;;;;;;12.05;6.18;;;;;;;23.71;55.23;101610.59;4983198;28;20085;-89
2022/08/02 07:47:45;;;;;;;12.15;6.72;;;;;;;23.91;53.99;101618.09;4983128;28;20050;-93
2022/08/02 07:50:13;;;;;;;11.68;6.95;;;;;;;23.97;54.83;101615.16;4981602;28;20352;-90
2022/08/02 07:52:40;;;;;;;10.13;5.88;;;;;;;24.01;53.37;101602.44;4983017;28;20027;-90
2022/08/02 07:55:06;;;;;;;7.82;5.70;;;;;;;24.06;53.76;101622.97;4981808;28;20052;-94
2022/08/02 07:57:31;;;;;;;10.85;5.80;;;;;;;24.21;53.37;101641.38;4982708;28;20035;-91
2022/08/02 07:59:57;;;;;;;8.45;5.30;;;;;;;24.14;53.19;101625.41;4981575;28;20045;-87
2022/08/02 08:02:26;;;;;;;9.55;4.90;;;;;;;24.13;53.18;101621.84;4981139;28;20046;-89
2022/08/02 08:04:52;;;;;;;9.80;4.80;;;;;;;24.07;52.47;101626.53;4980959;28;20053;-88
2022/08/02 08:07:18;;;;;;;6.60;4.60;;;;;;;24.17;53.03;101623.50;4980304;28;20090;-87
2022/08/02 08:09:44;;;;;;;7.78;4.20;;;;;;;24.44;51.78;101619.00;4981633;28;20031;-86
2022/08/02 08:12:10;;;;;;;6.70;3.85;;;;;;;24.77;50.89;101623.28;4980496;28;20031;-85
2022/08/02 08:14:37;;;;;;;5.30;3.90;;;;;;;24.91;50.60;101629.06;4981398;28;20035;-89
2022/08/02 08:17:06;;;;;;;7.82;3.65;;;;;;;25.12;49.82;101630.13;4981325;28;20085;-93
2022/08/02 08:19:32;;;;;;;8.45;3.60;;;;;;;25.21;49.30;101619.84;4981414;28;20027;-88
2022/08/02 08:22:00;;;;;;;7.85;3.72;;;;;;;25.25;48.89;101630.56;4980513;28;20149;-86
2022/08/02 08:24:26;;;;;;;6.15;3.40;;;;;;;25.20;48.37;101609.09;4979581;28;20058;-86
2022/08/02 08:26:52;;;;;;;6.60;3.60;;;;;;;25.41;48.04;101624.50;4979255;28;20363;-84
2022/08/02 08:29:18;;;;;;;7.32;4.40;;;;;;;25.34;49.52;101611.25;4980060;28;20042;-87
2022/08/02 08:31:43;;;;;;;6.97;3.90;;;;;;;25.25;48.78;101606.19;4980034;28;20027;-87
2022/08/02 08:34:09;;;;;;;7.30;3.70;;;;;;;25.53;48.08;101612.31;4980962;28;20031;-88
2022/08/02 08:36:35;;;;;;;7.68;3.08;;;;;;;25.56;46.82;101608.59;4979270;28;20062;-84
2022/08/02 08:39:00;;;;;;;6.38;2.97;;;;;;;25.40;46.89;101621.84;4981163;28;20031;-84
2022/08/02 08:41:26;;;;;;;4.18;2.70;;;;;;;25.44;46.39;101604.56;4981346;28;20026;-84
2022/08/02 08:43:51;;;;;;;7.57;2.88;;;;;;;25.49;46.63;101616.09;4981317;28;20030;-86
2022/08/02 08:46:27;;;;;;;5.07;2.50;;;;;;;25.65;45.03;101613.63;4981509;28;20091;-85
2022/08/02 08:48:59;;;;;;;11.43;2.72;;;;;;;25.75;44.71;101606.03;4982213;28;20030;-86
2022/08/02 08:51:29;;;;;;;3.50;2.40;;;;;;;25.71;44.47;101618.81;4982343;28;20054;-86
2022/08/02 08:53:57;;;;;;;3.22;2.30;;;;;;;25.89;44.83;101606.38;4981537;28;20077;-88
2022/08/02 08:56:28;;;;;;;4.22;2.40;;;;;;;26.15;44.55;101599.88;4981715;28;20062;-89
2022/08/02 08:58:53;;;;;;;4.30;2.60;;;;;;;26.50;44.72;101620.06;4981597;28;20097;-88
2022/08/02 09:01:20;;;;;;;4.50;2.50;;;;;;;26.54;43.62;101616.28;4980016;28;20026;-85
2022/08/02 09:03:45;;;;;;;4.80;2.40;;;;;;;26.65;43.38;101614.00;4981669;28;20022;-86
2022/08/02 09:06:11;;;;;;;5.30;2.40;;;;;;;26.48;43.50;101612.97;4981280;28;20403;-86
2022/08/02 09:08:36;;;;;;;6.20;2.60;;;;;;;26.41;44.25;101610.47;4980106;28;20045;-87
2022/08/02 09:11:12;;;;;;;4.47;2.30;;;;;;;26.70;42.47;101608.38;4978956;28;20033;-87
2022/08/02 09:13:38;;;;;;;5.38;2.50;;;;;;;26.83;42.18;101622.25;4980237;28;20038;-87
2022/08/02 09:19:43;;;;;;;;;;;;;;;;;;;;;
2022/08/02 09:22:11;;;;;;;5.78;2.58;;;;;;;26.70;40.99;101616.50;4999768;22;20852;-72
2022/08/02 09:24:46;;;;;;;4.35;2.20;;;;;;;26.89;40.49;101613.84;5015113;28;20053;-73
2022/08/02 09:27:21;;;;;;;4.32;2.33;;;;;;;27.12;39.54;101620.97;4997764;28;20022;-71
2022/08/02 09:29:51;;;;;;;6.10;2.30;;;;;;;27.35;37.73;101614.47;5013762;28;20097;-73
2022/08/02 09:32:18;;;;;;;6.65;2.20;;;;;;;27.55;36.75;101617.13;5014158;28;20036;-72
2022/08/02 09:34:47;;;;;;;3.53;2.10;;;;;;;27.75;35.17;101613.50;5012428;28;20037;-71
2022/08/02 09:37:23;;;;;;;3.97;2.05;;;;;;;27.66;34.82;101619.31;5014032;28;20038;-72
2022/08/02 09:39:49;;;;;;;5.78;2.65;;;;;;;27.72;35.56;101619.03;5013458;28;20072;-72
2022/08/02 09:42:14;;;;;;;3.95;2.20;;;;;;;27.64;34.22;101610.38;5014959;28;20049;-74
2022/08/02 09:44:52;;;;;;;7.72;2.30;;;;;;;27.81;36.45;101607.75;5014578;28;20022;-71
2022/08/02 09:47:17;;;;;;;6.15;2.30;;;;;;;27.78;35.39;101607.88;5017152;28;20368;-72
2022/08/02 09:49:46;;;;;;;4.53;2.10;;;;;;;27.91;33.67;101619.03;5017134;28;20084;-72
2022/08/02 09:52:12;;;;;;;7.80;2.00;;;;;;;28.03;32.02;101612.09;4999455;28;20049;-72
2022/08/02 09:54:38;;;;;;;3.53;1.90;;;;;;;28.30;32.07;101613.41;5016942;28;20060;-72
2022/08/02 09:57:04;;;;;;;3.90;2.00;;;;;;;28.44;32.64;101610.03;5016831;28;20026;-72
2022/08/02 09:59:30;;;;;;;3.47;1.98;;;;;;;28.32;31.84;101619.66;5017004;28;20118;-72
2022/08/02 10:01:57;;;;;;;5.13;2.10;;;;;;;28.44;31.75;101620.91;5016600;28;20026;-72
2022/08/02 10:04:24;;;;;;;3.50;2.10;;;;;;;28.72;32.50;101624.91;5016721;28;20136;-72
2022/08/02 10:06:51;;;;;;;5.25;2.17;;;;;;;28.74;32.91;101617.56;5016526;28;20026;-72
2022/08/02 10:09:18;;;;;;;6.80;2.10;;;;;;;28.91;31.95;101612.97;5016720;28;20063;-72
2022/08/02 10:11:44;;;;;;;6.50;2.00;;;;;;;29.21;30.21;101609.56;5016709;28;20026;-72
2022/08/02 10:14:10;;;;;;;2.60;1.95;;;;;;;29.45;30.25;101610.91;5015258;28;20063;-72
2022/08/02 10:16:38;;;;;;;6.40;2.00;;;;;;;29.55;31.01;101610.38;5015409;28;20393;-73
2022/08/02 10:19:04;;;;;;;4.68;2.20;;;;;;;29.32;31.00;101604.38;5016469;28;20104;-73
2022/08/02 10:21:32;;;;;;;4.80;2.10;;;;;;;29.20;31.09;101605.06;5016439;28;20068;-72
2022/08/02 10:24:05;;;;;;;5.32;2.10;;;;;;;29.30;31.45;101600.88;5000221;28;20047;-73
2022/08/02 10:26:31;;;;;;;6.75;2.00;;;;;;;29.19;30.77;101603.31;4996687;28;20529;-72
2022/08/02 10:28:57;;;;;;;4.57;1.90;;;;;;;29.27;30.59;101598.31;4996784;28;20038;-73
2022/08/02 10:31:29;;;;;;;4.20;2.10;;;;;;;29.18;30.76;101594.25;4996446;28;20014;-73
2022/08/02 10:33:59;;;;;;;6.00;1.98;;;;;;;29.42;30.72;101592.03;4996700;28;20058;-72
2022/08/02 10:36:26;;;;;;;4.13;1.88;;;;;;;29.64;31.60;101582.66;4996471;28;20479;-73
2022/08/02 10:38:54;;;;;;;3.50;1.90;;;;;;;29.45;29.86;101594.56;4996632;28;20135;-72
2022/08/02 10:41:39;;;;;;;5.03;2.10;;;;;;;29.28;31.21;101588.31;4996541;28;20018;-73
2022/08/02 10:44:04;;;;;;;3.65;1.90;;;;;;;28.95;30.97;101598.22;4996520;28;20432;-73
2022/08/02 10:46:32;;;;;;;3.97;1.90;;;;;;;28.98;30.99;101594.47;4996384;28;20072;-73
2022/08/02 10:49:11;;;;;;;10.93;2.00;;;;;;;29.02;30.61;101593.34;4996329;28;20101;-73
2022/08/02 10:52:05;;;;;;;4.13;1.80;;;;;;;29.07;31.74;101584.94;4996602;28;20032;-72
2022/08/02 10:54:30;;;;;;;6.28;1.90;;;;;;;28.97;30.57;101592.72;4996262;28;20058;-73
2022/08/02 10:56:57;;;;;;;4.72;2.00;;;;;;;28.60;30.86;101597.38;4995488;28;20022;-73
2022/08/02 10:59:34;;;;;;;4.07;2.10;;;;;;;28.58;30.92;101591.16;4996252;28;20030;-73
2022/08/02 11:02:01;;;;;;;4.00;1.88;;;;;;;28.72;31.28;101589.53;4996051;28;20026;-73
2022/08/02 11:04:32;;;;;;;5.35;2.00;;;;;;;28.95;30.66;101584.63;4996056;28;20097;-73
2022/08/02 11:07:16;;;;;;;5.03;1.90;;;;;;;29.41;30.02;101584.81;4996014;28;20105;-73
2022/08/02 11:09:48;;;;;;;6.90;1.90;;;;;;;29.91;29.04;101585.63;4996052;28;20037;-73
2022/08/02 11:12:18;;;;;;;3.05;1.98;;;;;;;30.32;28.51;101580.47;4996034;28;20054;-72
2022/08/02 11:15:00;;;;;;;7.60;1.90;;;;;;;30.61;29.04;101583.25;4994692;28;20063;-71
2022/08/02 11:17:28;;;;;;;5.63;1.90;;;;;;;30.91;29.19;101575.03;4995959;28;20093;-75
2022/08/02 11:20:12;;;;;;;5.15;1.88;;;;;;;30.99;27.34;101594.53;4995607;28;20097;-75
2022/08/02 11:22:42;;;;;;;6.10;2.00;;;;;;;31.02;27.67;101575.25;4995562;28;20053;-73
2022/08/02 11:25:22;;;;;;;5.47;1.80;;;;;;;31.17;27.59;101571.50;4978134;28;20542;-75
2022/08/02 11:27:53;;;;;;;8.32;2.03;;;;;;;30.85;27.86;101583.63;4995518;28;20026;-73
2022/08/02 11:30:19;;;;;;;3.35;1.83;;;;;;;30.64;28.69;101566.69;4977983;28;20464;-72
2022/08/02 11:32:45;;;;;;;5.93;1.95;;;;;;;30.31;28.20;101572.38;4995195;28;20058;-72
2022/08/02 11:35:11;;;;;;;3.60;1.80;;;;;;;30.25;27.42;101567.31;4995960;28;20031;-73